sensor_id;sensor_type;location;lat;lon;timestamp;temperature;humidity
21298;DHT22;10808;48.010;11.326;2023-12-04T00:01:35;-4.70;99.90
21298;DHT22;10808;48.010;11.326;2023-12-04T00:04:01;-4.60;99.90
21298;DHT22;10808;48.010;11.326;2023-12-04T00:06:27;-4.60;99.90
21298;DHT22;10808;48.010;11.326;2023-12-04T00:08:53;-4.60;99.90
21298;DHT22;10808;48.010;11.326;2023-12-04T00:11:19;-4.60;99.90
21298;DHT22;10808;48.010;11.326;2023-12-04T00:13:45;-4.60;99.90
21298;DHT22;10808;48.010;11.326;2023-12-04T00:16:11;-4.60;99.90
21298;DHT22;10808;48.010;11.326;2023-12-04T00:18:37;-4.60;99.90
21298;DHT22;10808;48.010;11.326;2023-12-04T00:21:04;-4.60;99.90
21298;DHT22;10808;48.010;11.326;2023-12-04T00:23:30;-4.50;99.90
21298;DHT22;10808;48.010;11.326;2023-12-04T00:25:56;-4.60;99.90
21298;DHT22;10808;48.010;11.326;2023-12-04T00:28:22;-4.60;99.90
21298;DHT22;10808;48.010;11.326;2023-12-04T00:30:48;-4.50;99.90
21298;DHT22;10808;48.010;11.326;2023-12-04T00:33:14;-4.50;99.90
21298;DHT22;10808;48.010;11.326;2023-12-04T00:35:40;-4.50;99.90
21298;DHT22;10808;48.010;11.326;2023-12-04T00:38:06;-4.40;99.90
21298;DHT22;10808;48.010;11.326;2023-12-04T00:40:32;-4.40;99.90
21298;DHT22;10808;48.010;11.326;2023-12-04T00:42:58;-4.50;99.90
21298;DHT22;10808;48.010;11.326;2023-12-04T00:45:24;-4.50;99.90
21298;DHT22;10808;48.010;11.326;2023-12-04T00:47:50;-4.60;99.90
21298;DHT22;10808;48.010;11.326;2023-12-04T00:50:16;-4.60;99.90
21298;DHT22;10808;48.010;11.326;2023-12-04T00:52:43;-4.60;99.90
21298;DHT22;10808;48.010;11.326;2023-12-04T00:55:09;-4.60;99.90
21298;DHT22;10808;48.010;11.326;2023-12-04T00:57:35;-4.60;99.90
21298;DHT22;10808;48.010;11.326;2023-12-04T01:00:01;-4.60;99.90
21298;DHT22;10808;48.010;11.326;2023-12-04T01:02:27;-4.60;99.90
21298;DHT22;10808;48.010;11.326;2023-12-04T01:04:53;-4.60;99.90
21298;DHT22;10808;48.010;11.326;2023-12-04T01:07:19;-4.60;99.90
21298;DHT22;10808;48.010;11.326;2023-12-04T01:09:45;-4.60;99.90
21298;DHT22;10808;48.010;11.326;2023-12-04T01:12:11;-4.60;99.90
21298;DHT22;10808;48.010;11.326;2023-12-04T01:14:37;-4.70;99.90
21298;DHT22;10808;48.010;11.326;2023-12-04T01:17:06;-4.70;99.90
21298;DHT22;10808;48.010;11.326;2023-12-04T01:19:32;-4.70;99.90
21298;DHT22;10808;48.010;11.326;2023-12-04T01:21:58;-4.70;99.90
21298;DHT22;10808;48.010;11.326;2023-12-04T01:24:24;-4.70;99.90
21298;DHT22;10808;48.010;11.326;2023-12-04T01:26:50;-4.70;99.90
21298;DHT22;10808;48.010;11.326;2023-12-04T01:29:16;-4.70;99.90
21298;DHT22;10808;48.010;11.326;2023-12-04T01:31:42;-4.70;99.90
21298;DHT22;10808;48.010;11.326;2023-12-04T01:34:08;-4.60;99.90
21298;DHT22;10808;48.010;11.326;2023-12-04T01:36:34;-4.60;99.90
21298;DHT22;10808;48.010;11.326;2023-12-04T01:39:00;-4.60;99.90
21298;DHT22;10808;48.010;11.326;2023-12-04T01:41:26;-4.60;99.90
21298;DHT22;10808;48.010;11.326;2023-12-04T01:43:52;-4.60;99.90
21298;DHT22;10808;48.010;11.326;2023-12-04T01:46:19;-4.70;99.90
21298;DHT22;10808;48.010;11.326;2023-12-04T01:48:45;-4.70;99.90
21298;DHT22;10808;48.010;11.326;2023-12-04T01:51:13;-4.70;99.90
21298;DHT22;10808;48.010;11.326;2023-12-04T01:53:39;-4.80;99.90
21298;DHT22;10808;48.010;11.326;2023-12-04T01:56:07;-4.80;99.90
21298;DHT22;10808;48.010;11.326;2023-12-04T01:58:34;-4.80;99.90
21298;DHT22;10808;48.010;11.326;2023-12-04T02:01:00;-4.80;99.90
21298;DHT22;10808;48.010;11.326;2023-12-04T02:03:27;-4.80;99.90
21298;DHT22;10808;48.010;11.326;2023-12-04T02:05:54;-4.80;99.90
21298;DHT22;10808;48.010;11.326;2023-12-04T02:08:25;-4.80;99.90
21298;DHT22;10808;48.010;11.326;2023-12-04T02:10:51;-4.80;99.90
21298;DHT22;10808;48.010;11.326;2023-12-04T02:13:17;-4.90;99.90
21298;DHT22;10808;48.010;11.326;2023-12-04T02:15:45;-4.90;99.90
21298;DHT22;10808;48.010;11.326;2023-12-04T02:18:12;-4.90;99.90
21298;DHT22;10808;48.010;11.326;2023-12-04T02:20:38;-4.80;99.90
21298;DHT22;10808;48.010;11.326;2023-12-04T02:23:05;-4.80;99.90
21298;DHT22;10808;48.010;11.326;2023-12-04T02:25:31;-4.80;99.90
21298;DHT22;10808;48.010;11.326;2023-12-04T02:28:01;-4.80;99.90
21298;DHT22;10808;48.010;11.326;2023-12-04T02:30:29;-4.80;99.90
21298;DHT22;10808;48.010;11.326;2023-12-04T02:32:57;-4.80;99.90
21298;DHT22;10808;48.010;11.326;2023-12-04T02:35:26;-4.80;99.90
21298;DHT22;10808;48.010;11.326;2023-12-04T02:37:53;-4.90;99.90
21298;DHT22;10808;48.010;11.326;2023-12-04T02:40:19;-4.80;99.90
21298;DHT22;10808;48.010;11.326;2023-12-04T02:42:46;-4.90;99.90
21298;DHT22;10808;48.010;11.326;2023-12-04T02:45:12;-4.90;99.90
21298;DHT22;10808;48.010;11.326;2023-12-04T02:47:38;-5.00;99.90
21298;DHT22;10808;48.010;11.326;2023-12-04T02:50:04;-5.10;99.90
21298;DHT22;10808;48.010;11.326;2023-12-04T02:52:30;-5.10;99.90
21298;DHT22;10808;48.010;11.326;2023-12-04T02:54:56;-5.10;99.90
21298;DHT22;10808;48.010;11.326;2023-12-04T02:57:22;-5.10;99.90
21298;DHT22;10808;48.010;11.326;2023-12-04T02:59:49;-5.00;99.90
21298;DHT22;10808;48.010;11.326;2023-12-04T03:02:15;-5.00;99.90
21298;DHT22;10808;48.010;11.326;2023-12-04T03:04:41;-5.00;99.90
21298;DHT22;10808;48.010;11.326;2023-12-04T03:07:07;-5.00;99.90
21298;DHT22;10808;48.010;11.326;2023-12-04T03:09:33;-4.90;99.90
21298;DHT22;10808;48.010;11.326;2023-12-04T03:11:59;-4.90;99.90
21298;DHT22;10808;48.010;11.326;2023-12-04T03:14:25;-4.90;99.90
21298;DHT22;10808;48.010;11.326;2023-12-04T03:16:51;-4.90;99.90
21298;DHT22;10808;48.010;11.326;2023-12-04T03:19:17;-4.90;99.90
21298;DHT22;10808;48.010;11.326;2023-12-04T03:21:43;-4.90;99.90
21298;DHT22;10808;48.010;11.326;2023-12-04T03:24:09;-4.90;99.90
21298;DHT22;10808;48.010;11.326;2023-12-04T03:26:35;-4.90;99.90
21298;DHT22;10808;48.010;11.326;2023-12-04T03:29:01;-4.90;99.90
21298;DHT22;10808;48.010;11.326;2023-12-04T03:31:27;-4.90;99.90
21298;DHT22;10808;48.010;11.326;2023-12-04T03:33:54;-4.90;99.90
21298;DHT22;10808;48.010;11.326;2023-12-04T03:36:20;-4.90;99.90
21298;DHT22;10808;48.010;11.326;2023-12-04T03:38:46;-5.00;99.90
21298;DHT22;10808;48.010;11.326;2023-12-04T03:41:15;-5.00;99.90
21298;DHT22;10808;48.010;11.326;2023-12-04T03:43:43;-5.00;99.90
21298;DHT22;10808;48.010;11.326;2023-12-04T03:46:09;-5.00;99.90
21298;DHT22;10808;48.010;11.326;2023-12-04T03:48:35;-5.00;99.90
21298;DHT22;10808;48.010;11.326;2023-12-04T03:51:01;-5.00;99.90
21298;DHT22;10808;48.010;11.326;2023-12-04T03:53:28;-5.00;99.90
21298;DHT22;10808;48.010;11.326;2023-12-04T03:55:54;-5.00;99.90
21298;DHT22;10808;48.010;11.326;2023-12-04T03:58:20;-5.00;99.90
21298;DHT22;10808;48.010;11.326;2023-12-04T04:00:46;-5.00;99.90
21298;DHT22;10808;48.010;11.326;2023-12-04T04:03:12;-5.00;99.90
21298;DHT22;10808;48.010;11.326;2023-12-04T04:05:38;-5.00;99.90
21298;DHT22;10808;48.010;11.326;2023-12-04T04:08:04;-5.10;99.90
21298;DHT22;10808;48.010;11.326;2023-12-04T04:10:32;-5.00;99.90
21298;DHT22;10808;48.010;11.326;2023-12-04T04:12:58;-5.10;99.90
21298;DHT22;10808;48.010;11.326;2023-12-04T04:15:24;-5.10;99.90
21298;DHT22;10808;48.010;11.326;2023-12-04T04:17:50;-5.20;99.90
21298;DHT22;10808;48.010;11.326;2023-12-04T04:20:16;-5.20;99.90
21298;DHT22;10808;48.010;11.326;2023-12-04T04:22:42;-5.20;99.90
21298;DHT22;10808;48.010;11.326;2023-12-04T04:25:08;-5.20;99.90
21298;DHT22;10808;48.010;11.326;2023-12-04T04:27:35;-5.20;99.90
21298;DHT22;10808;48.010;11.326;2023-12-04T04:30:02;-5.20;99.90
21298;DHT22;10808;48.010;11.326;2023-12-04T04:32:28;-5.20;99.90
21298;DHT22;10808;48.010;11.326;2023-12-04T04:34:54;-5.20;99.90
21298;DHT22;10808;48.010;11.326;2023-12-04T04:37:20;-5.20;99.90
21298;DHT22;10808;48.010;11.326;2023-12-04T04:39:46;-5.20;99.90
21298;DHT22;10808;48.010;11.326;2023-12-04T04:42:12;-5.20;99.90
21298;DHT22;10808;48.010;11.326;2023-12-04T04:44:38;-5.30;99.90
21298;DHT22;10808;48.010;11.326;2023-12-04T04:47:04;-5.30;99.90
21298;DHT22;10808;48.010;11.326;2023-12-04T04:49:30;-5.30;99.90
21298;DHT22;10808;48.010;11.326;2023-12-04T04:51:56;-5.30;99.80
21298;DHT22;10808;48.010;11.326;2023-12-04T04:54:22;-5.40;99.90
21298;DHT22;10808;48.010;11.326;2023-12-04T04:56:48;-5.30;99.90
21298;DHT22;10808;48.010;11.326;2023-12-04T04:59:14;-5.30;99.90
21298;DHT22;10808;48.010;11.326;2023-12-04T05:01:40;-5.20;99.90
21298;DHT22;10808;48.010;11.326;2023-12-04T05:04:06;-5.30;99.90
21298;DHT22;10808;48.010;11.326;2023-12-04T05:06:32;-5.20;99.90
21298;DHT22;10808;48.010;11.326;2023-12-04T05:08:58;-5.20;99.90
21298;DHT22;10808;48.010;11.326;2023-12-04T05:11:24;-5.20;99.90
21298;DHT22;10808;48.010;11.326;2023-12-04T05:13:50;-5.20;99.90
21298;DHT22;10808;48.010;11.326;2023-12-04T05:16:16;-5.30;99.90
21298;DHT22;10808;48.010;11.326;2023-12-04T05:18:42;-5.30;99.90
21298;DHT22;10808;48.010;11.326;2023-12-04T05:21:09;-5.30;99.90
21298;DHT22;10808;48.010;11.326;2023-12-04T05:23:39;-5.30;99.90
21298;DHT22;10808;48.010;11.326;2023-12-04T05:26:05;-5.30;99.90
21298;DHT22;10808;48.010;11.326;2023-12-04T05:28:32;-5.30;99.90
21298;DHT22;10808;48.010;11.326;2023-12-04T05:30:58;-5.30;99.90
21298;DHT22;10808;48.010;11.326;2023-12-04T05:33:24;-5.40;99.90
21298;DHT22;10808;48.010;11.326;2023-12-04T05:35:50;-5.40;99.90
21298;DHT22;10808;48.010;11.326;2023-12-04T05:38:19;-5.40;99.90
21298;DHT22;10808;48.010;11.326;2023-12-04T05:40:45;-5.40;99.90
21298;DHT22;10808;48.010;11.326;2023-12-04T05:43:11;-5.40;99.90
21298;DHT22;10808;48.010;11.326;2023-12-04T05:45:38;-5.40;99.90
21298;DHT22;10808;48.010;11.326;2023-12-04T05:48:05;-5.40;99.90
21298;DHT22;10808;48.010;11.326;2023-12-04T05:50:31;-5.40;99.90
21298;DHT22;10808;48.010;11.326;2023-12-04T05:52:57;-5.40;99.90
21298;DHT22;10808;48.010;11.326;2023-12-04T05:55:23;-5.40;99.90
21298;DHT22;10808;48.010;11.326;2023-12-04T05:57:49;-5.40;99.90
21298;DHT22;10808;48.010;11.326;2023-12-04T06:00:15;-5.50;99.90
21298;DHT22;10808;48.010;11.326;2023-12-04T06:02:42;-5.50;99.90
21298;DHT22;10808;48.010;11.326;2023-12-04T06:05:09;-5.50;99.90
21298;DHT22;10808;48.010;11.326;2023-12-04T06:07:36;-5.50;99.90
21298;DHT22;10808;48.010;11.326;2023-12-04T06:10:03;-5.40;99.90
21298;DHT22;10808;48.010;11.326;2023-12-04T06:12:32;-5.50;99.90
21298;DHT22;10808;48.010;11.326;2023-12-04T06:14:58;-5.50;99.90
21298;DHT22;10808;48.010;11.326;2023-12-04T06:17:25;-5.50;99.90
21298;DHT22;10808;48.010;11.326;2023-12-04T06:19:51;-5.50;99.90
21298;DHT22;10808;48.010;11.326;2023-12-04T06:22:18;-5.50;99.90
21298;DHT22;10808;48.010;11.326;2023-12-04T06:24:46;-5.50;99.90
21298;DHT22;10808;48.010;11.326;2023-12-04T06:27:16;-5.50;99.90
21298;DHT22;10808;48.010;11.326;2023-12-04T06:29:43;-5.60;99.90
21298;DHT22;10808;48.010;11.326;2023-12-04T06:32:10;-5.60;99.90
21298;DHT22;10808;48.010;11.326;2023-12-04T06:34:37;-5.60;99.90
21298;DHT22;10808;48.010;11.326;2023-12-04T06:37:03;-5.60;99.90
21298;DHT22;10808;48.010;11.326;2023-12-04T06:39:33;-5.60;99.90
21298;DHT22;10808;48.010;11.326;2023-12-04T06:42:00;-5.60;99.90
21298;DHT22;10808;48.010;11.326;2023-12-04T06:44:26;-5.60;99.90
21298;DHT22;10808;48.010;11.326;2023-12-04T06:46:52;-5.60;99.90
21298;DHT22;10808;48.010;11.326;2023-12-04T06:49:18;-5.50;99.90
21298;DHT22;10808;48.010;11.326;2023-12-04T06:51:44;-5.50;99.90
21298;DHT22;10808;48.010;11.326;2023-12-04T06:54:10;-5.60;99.90
21298;DHT22;10808;48.010;11.326;2023-12-04T06:56:39;-5.60;99.90
21298;DHT22;10808;48.010;11.326;2023-12-04T06:59:05;-5.60;99.90
21298;DHT22;10808;48.010;11.326;2023-12-04T07:01:31;-5.60;99.90
21298;DHT22;10808;48.010;11.326;2023-12-04T07:03:57;-5.60;99.90
21298;DHT22;10808;48.010;11.326;2023-12-04T07:06:23;-5.60;99.90
21298;DHT22;10808;48.010;11.326;2023-12-04T07:08:50;-5.60;99.90
21298;DHT22;10808;48.010;11.326;2023-12-04T07:11:16;-5.60;99.90
21298;DHT22;10808;48.010;11.326;2023-12-04T07:13:42;-5.50;99.90
21298;DHT22;10808;48.010;11.326;2023-12-04T07:16:09;-5.50;99.90
21298;DHT22;10808;48.010;11.326;2023-12-04T07:18:35;-5.40;99.90
21298;DHT22;10808;48.010;11.326;2023-12-04T07:21:01;-5.40;99.90
21298;DHT22;10808;48.010;11.326;2023-12-04T07:23:27;-5.40;99.90
21298;DHT22;10808;48.010;11.326;2023-12-04T07:25:53;-5.40;99.90
21298;DHT22;10808;48.010;11.326;2023-12-04T07:28:19;-5.40;99.90
21298;DHT22;10808;48.010;11.326;2023-12-04T07:30:45;-5.30;99.90
21298;DHT22;10808;48.010;11.326;2023-12-04T07:33:12;-5.30;99.90
21298;DHT22;10808;48.010;11.326;2023-12-04T07:35:38;-5.20;99.90
21298;DHT22;10808;48.010;11.326;2023-12-04T07:38:04;-5.20;99.90
21298;DHT22;10808;48.010;11.326;2023-12-04T07:40:30;-5.20;99.90
21298;DHT22;10808;48.010;11.326;2023-12-04T07:42:56;-5.10;99.90
21298;DHT22;10808;48.010;11.326;2023-12-04T07:45:22;-5.10;99.90
21298;DHT22;10808;48.010;11.326;2023-12-04T07:47:49;-5.00;99.90
21298;DHT22;10808;48.010;11.326;2023-12-04T07:50:16;-5.00;99.90
21298;DHT22;10808;48.010;11.326;2023-12-04T07:52:42;-5.00;99.90
21298;DHT22;10808;48.010;11.326;2023-12-04T07:55:09;-4.90;99.90
21298;DHT22;10808;48.010;11.326;2023-12-04T07:57:35;-4.70;99.90
21298;DHT22;10808;48.010;11.326;2023-12-04T08:00:01;-4.60;99.90
21298;DHT22;10808;48.010;11.326;2023-12-04T08:02:27;-4.50;99.90
21298;DHT22;10808;48.010;11.326;2023-12-04T08:04:53;-4.50;99.90
21298;DHT22;10808;48.010;11.326;2023-12-04T08:07:19;-4.40;99.90
21298;DHT22;10808;48.010;11.326;2023-12-04T08:09:45;-4.30;99.90
21298;DHT22;10808;48.010;11.326;2023-12-04T08:12:12;-4.30;99.90
21298;DHT22;10808;48.010;11.326;2023-12-04T08:14:38;-4.30;99.90
21298;DHT22;10808;48.010;11.326;2023-12-04T08:17:04;-4.10;99.90
21298;DHT22;10808;48.010;11.326;2023-12-04T08:19:30;-4.10;99.90
21298;DHT22;10808;48.010;11.326;2023-12-04T08:21:56;-4.00;99.90
21298;DHT22;10808;48.010;11.326;2023-12-04T08:24:22;-3.90;99.90
21298;DHT22;10808;48.010;11.326;2023-12-04T08:26:48;-3.90;99.90
21298;DHT22;10808;48.010;11.326;2023-12-04T08:29:16;-3.80;99.90
21298;DHT22;10808;48.010;11.326;2023-12-04T08:31:43;-3.70;99.90
21298;DHT22;10808;48.010;11.326;2023-12-04T08:34:09;-3.70;99.90
21298;DHT22;10808;48.010;11.326;2023-12-04T08:36:35;-3.60;99.90
21298;DHT22;10808;48.010;11.326;2023-12-04T08:39:01;-3.50;99.90
21298;DHT22;10808;48.010;11.326;2023-12-04T08:41:27;-3.40;99.90
21298;DHT22;10808;48.010;11.326;2023-12-04T08:43:54;-3.30;99.90
21298;DHT22;10808;48.010;11.326;2023-12-04T08:46:21;-3.20;99.90
21298;DHT22;10808;48.010;11.326;2023-12-04T08:48:47;-3.10;99.90
21298;DHT22;10808;48.010;11.326;2023-12-04T08:51:16;-3.10;99.90
21298;DHT22;10808;48.010;11.326;2023-12-04T08:53:43;-3.00;99.90
21298;DHT22;10808;48.010;11.326;2023-12-04T08:56:10;-2.90;99.90
21298;DHT22;10808;48.010;11.326;2023-12-04T08:58:36;-2.80;99.90
21298;DHT22;10808;48.010;11.326;2023-12-04T09:01:02;-2.70;99.90
21298;DHT22;10808;48.010;11.326;2023-12-04T09:03:30;-2.50;99.90
21298;DHT22;10808;48.010;11.326;2023-12-04T09:05:57;-2.40;99.90
21298;DHT22;10808;48.010;11.326;2023-12-04T09:08:23;-2.30;99.90
21298;DHT22;10808;48.010;11.326;2023-12-04T09:10:52;-2.20;99.90
21298;DHT22;10808;48.010;11.326;2023-12-04T09:13:18;-2.10;99.90
21298;DHT22;10808;48.010;11.326;2023-12-04T09:15:44;-2.00;99.90
21298;DHT22;10808;48.010;11.326;2023-12-04T09:18:10;-1.90;99.90
21298;DHT22;10808;48.010;11.326;2023-12-04T09:20:36;-1.70;99.90
21298;DHT22;10808;48.010;11.326;2023-12-04T09:23:02;-1.70;99.90
21298;DHT22;10808;48.010;11.326;2023-12-04T09:25:28;-1.60;99.90
21298;DHT22;10808;48.010;11.326;2023-12-04T09:27:54;-1.50;99.90
21298;DHT22;10808;48.010;11.326;2023-12-04T09:30:20;-1.50;99.90
21298;DHT22;10808;48.010;11.326;2023-12-04T09:32:46;-1.40;99.90
21298;DHT22;10808;48.010;11.326;2023-12-04T09:35:13;-1.40;99.90
21298;DHT22;10808;48.010;11.326;2023-12-04T09:37:39;-1.30;99.90
21298;DHT22;10808;48.010;11.326;2023-12-04T09:40:05;-1.30;99.90
21298;DHT22;10808;48.010;11.326;2023-12-04T09:42:31;-1.30;99.90
21298;DHT22;10808;48.010;11.326;2023-12-04T09:44:59;-1.30;99.90
21298;DHT22;10808;48.010;11.326;2023-12-04T09:47:26;-1.20;99.90
21298;DHT22;10808;48.010;11.326;2023-12-04T09:49:53;-1.20;99.90
21298;DHT22;10808;48.010;11.326;2023-12-04T09:52:19;-1.20;99.90
21298;DHT22;10808;48.010;11.326;2023-12-04T09:54:46;-1.20;99.90
21298;DHT22;10808;48.010;11.326;2023-12-04T09:57:12;-1.20;99.90
21298;DHT22;10808;48.010;11.326;2023-12-04T09:59:40;-1.20;99.90
21298;DHT22;10808;48.010;11.326;2023-12-04T10:02:06;-1.10;99.90
21298;DHT22;10808;48.010;11.326;2023-12-04T10:04:32;-1.10;99.90
21298;DHT22;10808;48.010;11.326;2023-12-04T10:06:59;-1.00;99.90
21298;DHT22;10808;48.010;11.326;2023-12-04T10:09:26;-1.00;99.90
21298;DHT22;10808;48.010;11.326;2023-12-04T10:11:52;-0.90;99.90
21298;DHT22;10808;48.010;11.326;2023-12-04T10:14:20;-0.80;99.90
21298;DHT22;10808;48.010;11.326;2023-12-04T10:16:47;-0.70;99.90
21298;DHT22;10808;48.010;11.326;2023-12-04T10:19:18;-0.60;99.90
21298;DHT22;10808;48.010;11.326;2023-12-04T10:21:46;-0.60;99.90
21298;DHT22;10808;48.010;11.326;2023-12-04T10:24:12;-0.60;99.90
21298;DHT22;10808;48.010;11.326;2023-12-04T10:26:49;-0.50;99.90
21298;DHT22;10808;48.010;11.326;2023-12-04T10:29:16;-0.50;99.90
21298;DHT22;10808;48.010;11.326;2023-12-04T10:31:42;-0.50;99.90
21298;DHT22;10808;48.010;11.326;2023-12-04T10:34:08;-0.40;99.90
21298;DHT22;10808;48.010;11.326;2023-12-04T10:36:38;-0.40;99.90
21298;DHT22;10808;48.010;11.326;2023-12-04T10:39:04;-0.30;99.90
21298;DHT22;10808;48.010;11.326;2023-12-04T10:41:31;-0.30;99.90
21298;DHT22;10808;48.010;11.326;2023-12-04T10:44:00;-0.30;99.90
21298;DHT22;10808;48.010;11.326;2023-12-04T10:46:27;-0.20;99.90
21298;DHT22;10808;48.010;11.326;2023-12-04T10:48:53;-0.20;99.90
21298;DHT22;10808;48.010;11.326;2023-12-04T10:51:20;-0.20;99.90
21298;DHT22;10808;48.010;11.326;2023-12-04T10:53:49;-0.10;99.90
21298;DHT22;10808;48.010;11.326;2023-12-04T10:56:22;0.00;99.90
21298;DHT22;10808;48.010;11.326;2023-12-04T10:58:51;-0.10;99.90
21298;DHT22;10808;48.010;11.326;2023-12-04T11:01:19;0.00;99.90
21298;DHT22;10808;48.010;11.326;2023-12-04T11:03:52;0.00;99.90
21298;DHT22;10808;48.010;11.326;2023-12-04T11:06:21;-0.10;99.90
21298;DHT22;10808;48.010;11.326;2023-12-04T11:08:48;-0.10;99.90
21298;DHT22;10808;48.010;11.326;2023-12-04T11:11:22;-0.10;99.90
21298;DHT22;10808;48.010;11.326;2023-12-04T11:13:54;-0.10;99.90
21298;DHT22;10808;48.010;11.326;2023-12-04T11:19:09;-0.10;99.90
21298;DHT22;10808;48.010;11.326;2023-12-04T11:21:39;0.00;99.90
21298;DHT22;10808;48.010;11.326;2023-12-04T11:24:06;0.00;99.90
21298;DHT22;10808;48.010;11.326;2023-12-04T11:26:33;0.00;99.90
21298;DHT22;10808;48.010;11.326;2023-12-04T11:29:00;0.00;99.90
21298;DHT22;10808;48.010;11.326;2023-12-04T11:31:26;0.00;99.90
21298;DHT22;10808;48.010;11.326;2023-12-04T11:33:52;0.00;99.90
21298;DHT22;10808;48.010;11.326;2023-12-04T11:36:19;0.10;99.90
21298;DHT22;10808;48.010;11.326;2023-12-04T11:38:46;0.10;99.90
21298;DHT22;10808;48.010;11.326;2023-12-04T11:41:19;0.20;99.90
21298;DHT22;10808;48.010;11.326;2023-12-04T11:43:46;0.20;99.90
21298;DHT22;10808;48.010;11.326;2023-12-04T11:46:14;0.20;99.90
21298;DHT22;10808;48.010;11.326;2023-12-04T11:48:47;0.20;99.90
21298;DHT22;10808;48.010;11.326;2023-12-04T11:54:00;0.20;99.90
21298;DHT22;10808;48.010;11.326;2023-12-04T11:56:26;0.10;99.90
21298;DHT22;10808;48.010;11.326;2023-12-04T11:58:52;0.10;99.90
21298;DHT22;10808;48.010;11.326;2023-12-04T12:01:18;0.10;99.90
21298;DHT22;10808;48.010;11.326;2023-12-04T12:03:50;0.20;99.90
21298;DHT22;10808;48.010;11.326;2023-12-04T12:06:17;0.20;99.90
21298;DHT22;10808;48.010;11.326;2023-12-04T12:08:44;0.30;99.90
21298;DHT22;10808;48.010;11.326;2023-12-04T12:11:11;0.30;99.90
21298;DHT22;10808;48.010;11.326;2023-12-04T12:13:40;0.30;99.90
21298;DHT22;10808;48.010;11.326;2023-12-04T12:16:07;0.40;99.90
21298;DHT22;10808;48.010;11.326;2023-12-04T12:18:36;0.40;99.90
21298;DHT22;10808;48.010;11.326;2023-12-04T12:21:02;0.40;99.90
21298;DHT22;10808;48.010;11.326;2023-12-04T12:23:28;0.40;99.90
21298;DHT22;10808;48.010;11.326;2023-12-04T12:25:55;0.50;99.90
21298;DHT22;10808;48.010;11.326;2023-12-04T12:28:22;0.50;99.90
21298;DHT22;10808;48.010;11.326;2023-12-04T12:30:48;0.60;99.90
21298;DHT22;10808;48.010;11.326;2023-12-04T12:33:15;0.70;99.90
21298;DHT22;10808;48.010;11.326;2023-12-04T12:35:41;0.80;99.90
21298;DHT22;10808;48.010;11.326;2023-12-04T12:38:08;0.80;99.90
21298;DHT22;10808;48.010;11.326;2023-12-04T12:40:34;0.90;99.90
21298;DHT22;10808;48.010;11.326;2023-12-04T12:43:07;1.00;99.90
21298;DHT22;10808;48.010;11.326;2023-12-04T12:45:40;1.10;99.90
21298;DHT22;10808;48.010;11.326;2023-12-04T12:48:13;1.30;99.90
21298;DHT22;10808;48.010;11.326;2023-12-04T12:50:41;1.40;99.90
21298;DHT22;10808;48.010;11.326;2023-12-04T12:53:07;1.40;99.90
21298;DHT22;10808;48.010;11.326;2023-12-04T12:55:37;1.50;99.90
21298;DHT22;10808;48.010;11.326;2023-12-04T12:58:03;1.40;99.90
21298;DHT22;10808;48.010;11.326;2023-12-04T13:00:32;1.30;99.90
21298;DHT22;10808;48.010;11.326;2023-12-04T13:02:59;1.30;99.90
21298;DHT22;10808;48.010;11.326;2023-12-04T13:05:25;1.20;99.90
21298;DHT22;10808;48.010;11.326;2023-12-04T13:07:51;1.20;99.90
21298;DHT22;10808;48.010;11.326;2023-12-04T13:10:17;1.20;99.90
21298;DHT22;10808;48.010;11.326;2023-12-04T13:12:43;1.20;99.90
21298;DHT22;10808;48.010;11.326;2023-12-04T13:15:09;1.20;99.90
21298;DHT22;10808;48.010;11.326;2023-12-04T13:17:36;1.20;99.90
21298;DHT22;10808;48.010;11.326;2023-12-04T13:20:02;1.20;99.90
21298;DHT22;10808;48.010;11.326;2023-12-04T13:22:30;1.20;99.90
21298;DHT22;10808;48.010;11.326;2023-12-04T13:24:58;1.20;99.90
21298;DHT22;10808;48.010;11.326;2023-12-04T13:27:24;1.30;99.90
21298;DHT22;10808;48.010;11.326;2023-12-04T13:29:50;1.30;99.90
21298;DHT22;10808;48.010;11.326;2023-12-04T13:32:16;1.30;99.90
21298;DHT22;10808;48.010;11.326;2023-12-04T13:34:42;1.40;99.90
21298;DHT22;10808;48.010;11.326;2023-12-04T13:37:09;1.40;99.90
21298;DHT22;10808;48.010;11.326;2023-12-04T13:39:35;1.50;99.90
21298;DHT22;10808;48.010;11.326;2023-12-04T13:42:26;1.50;99.90
21298;DHT22;10808;48.010;11.326;2023-12-04T13:45:11;1.60;99.90
21298;DHT22;10808;48.010;11.326;2023-12-04T13:47:41;1.60;99.90
21298;DHT22;10808;48.010;11.326;2023-12-04T13:50:07;1.70;99.90
21298;DHT22;10808;48.010;11.326;2023-12-04T13:52:37;1.70;99.90
21298;DHT22;10808;48.010;11.326;2023-12-04T13:55:05;1.70;99.90
21298;DHT22;10808;48.010;11.326;2023-12-04T13:57:43;1.70;99.90
21298;DHT22;10808;48.010;11.326;2023-12-04T14:00:44;1.80;99.90
21298;DHT22;10808;48.010;11.326;2023-12-04T14:03:10;1.70;99.90
21298;DHT22;10808;48.010;11.326;2023-12-04T14:05:36;1.70;99.90
21298;DHT22;10808;48.010;11.326;2023-12-04T14:08:02;1.70;99.90
21298;DHT22;10808;48.010;11.326;2023-12-04T14:10:29;1.60;99.90
21298;DHT22;10808;48.010;11.326;2023-12-04T14:12:55;1.60;99.90
21298;DHT22;10808;48.010;11.326;2023-12-04T14:15:21;1.50;99.90
21298;DHT22;10808;48.010;11.326;2023-12-04T14:17:47;1.50;99.90
21298;DHT22;10808;48.010;11.326;2023-12-04T14:20:14;1.50;99.90
21298;DHT22;10808;48.010;11.326;2023-12-04T14:22:44;1.50;99.90
21298;DHT22;10808;48.010;11.326;2023-12-04T14:25:11;1.40;99.90
21298;DHT22;10808;48.010;11.326;2023-12-04T14:27:37;1.40;99.90
21298;DHT22;10808;48.010;11.326;2023-12-04T14:30:11;1.30;99.90
21298;DHT22;10808;48.010;11.326;2023-12-04T14:32:37;1.30;99.90
21298;DHT22;10808;48.010;11.326;2023-12-04T14:35:04;1.30;99.90
21298;DHT22;10808;48.010;11.326;2023-12-04T14:37:30;1.30;99.90
21298;DHT22;10808;48.010;11.326;2023-12-04T14:39:56;1.20;99.90
21298;DHT22;10808;48.010;11.326;2023-12-04T14:42:22;1.10;99.90
21298;DHT22;10808;48.010;11.326;2023-12-04T14:44:48;1.10;99.90
21298;DHT22;10808;48.010;11.326;2023-12-04T14:47:15;1.10;99.90
21298;DHT22;10808;48.010;11.326;2023-12-04T14:49:41;1.00;99.90
21298;DHT22;10808;48.010;11.326;2023-12-04T14:52:07;1.00;99.90
21298;DHT22;10808;48.010;11.326;2023-12-04T14:54:33;1.00;99.90
21298;DHT22;10808;48.010;11.326;2023-12-04T14:57:20;1.00;99.90
21298;DHT22;10808;48.010;11.326;2023-12-04T15:00:06;0.90;99.90
21298;DHT22;10808;48.010;11.326;2023-12-04T15:02:50;0.90;99.90
21298;DHT22;10808;48.010;11.326;2023-12-04T15:05:35;0.80;99.90
21298;DHT22;10808;48.010;11.326;2023-12-04T15:08:26;0.80;99.90
21298;DHT22;10808;48.010;11.326;2023-12-04T15:11:11;0.80;99.90
21298;DHT22;10808;48.010;11.326;2023-12-04T15:13:55;0.80;99.90
21298;DHT22;10808;48.010;11.326;2023-12-04T15:16:32;0.70;99.90
21298;DHT22;10808;48.010;11.326;2023-12-04T15:19:01;0.70;99.90
21298;DHT22;10808;48.010;11.326;2023-12-04T15:21:30;0.70;99.90
21298;DHT22;10808;48.010;11.326;2023-12-04T15:23:56;0.70;99.90
21298;DHT22;10808;48.010;11.326;2023-12-04T15:26:23;0.70;99.90